Time;durP1;ratioP1;P1;durP2;ratioP2;P2;SDS_P1;SDS_P2;PMS_P1;PMS_P2;Temp;Humidity;BMP_temperature;BMP_pressure;BME280_temperature;BME280_humidity;BME280_pressure;Samples;Min_cycle;Max_cycle;Signal;HPM_P1;HPM_P2
2023/01/26 00:01:20;;;;;;;64.07;24.45;;;0.80;99.90;;;;;;5059198;28;20178;-45
2023/01/26 00:03:46;;;;;;;60.25;23.52;;;0.70;99.90;;;;;;5070194;28;20229;-45
2023/01/26 00:06:14;;;;;;;67.53;24.48;;;0.80;99.90;;;;;;5071792;28;20605;-45
2023/01/26 00:08:43;;;;;;;62.83;23.52;;;0.80;99.90;;;;;;5071480;28;20249;-45
2023/01/26 00:11:10;;;;;;;60.17;23.55;;;0.90;99.90;;;;;;5071582;28;20690;-45
2023/01/26 00:13:37;;;;;;;60.08;23.98;;;0.90;99.90;;;;;;5071789;28;20227;-45
2023/01/26 00:16:03;;;;;;;65.10;24.63;;;0.90;99.90;;;;;;5070428;28;20170;-45
2023/01/26 00:18:30;;;;;;;60.35;23.30;;;0.80;99.90;;;;;;5071504;28;20170;-45
2023/01/26 00:20:57;;;;;;;56.13;22.08;;;0.80;99.90;;;;;;5053271;28;20170;-45
2023/01/26 00:23:23;;;;;;;62.65;23.85;;;0.80;99.90;;;;;;5051869;28;20238;-45
2023/01/26 00:25:48;;;;;;;65.25;23.88;;;0.80;99.90;;;;;;5050653;28;20170;-47
2023/01/26 00:28:14;;;;;;;60.35;23.98;;;0.90;99.90;;;;;;5051448;28;20170;-46
2023/01/26 00:30:39;;;;;;;64.95;21.98;;;0.90;99.90;;;;;;5066971;28;20170;-47
2023/01/26 00:33:05;;;;;;;58.17;23.40;;;0.80;99.90;;;;;;5050898;28;20646;-45
2023/01/26 00:35:30;;;;;;;61.17;23.98;;;0.80;99.90;;;;;;5068783;28;20173;-46
2023/01/26 00:37:56;;;;;;;59.40;23.83;;;0.80;99.90;;;;;;5071300;28;20169;-46
2023/01/26 00:40:22;;;;;;;58.15;21.95;;;0.90;99.90;;;;;;5071573;28;20683;-45
2023/01/26 00:42:47;;;;;;;60.80;23.48;;;2.70;99.90;;;;;;5066952;28;20666;-46
2023/01/26 00:45:13;;;;;;;54.78;20.60;;;1.00;99.90;;;;;;5051230;28;20173;-47
2023/01/26 00:47:38;;;;;;;58.55;22.73;;;0.80;99.90;;;;;;5050550;28;20206;-47
2023/01/26 00:50:05;;;;;;;53.20;21.42;;;0.70;99.90;;;;;;5051069;28;20169;-46
2023/01/26 00:52:30;;;;;;;50.50;21.63;;;0.80;99.90;;;;;;5067896;28;20170;-46
2023/01/26 00:54:56;;;;;;;64.80;23.40;;;0.70;99.90;;;;;;5071042;28;20358;-46
2023/01/26 00:57:22;;;;;;;59.53;23.08;;;0.80;99.90;;;;;;5071408;28;20174;-46
2023/01/26 00:59:47;;;;;;;61.90;25.38;;;-0.80;99.90;;;;;;5063555;28;20174;-46
2023/01/26 01:02:13;;;;;;;61.70;23.45;;;0.80;99.90;;;;;;5050485;28;20212;-45
2023/01/26 01:04:38;;;;;;;58.50;23.17;;;0.80;99.90;;;;;;5050862;28;20244;-46
2023/01/26 01:07:04;;;;;;;62.05;22.88;;;0.90;99.90;;;;;;5050788;28;20174;-47
2023/01/26 01:09:30;;;;;;;58.40;23.33;;;0.80;99.90;;;;;;5056053;28;20176;-47
2023/01/26 01:11:55;;;;;;;47.47;19.70;;;0.90;99.90;;;;;;5070313;28;20174;-46
2023/01/26 01:14:21;;;;;;;53.35;20.70;;;1.00;99.90;;;;;;5074607;28;20176;-46
2023/01/26 01:16:46;;;;;;;54.95;21.88;;;0.80;99.90;;;;;;5075053;28;20174;-46
2023/01/26 01:19:14;;;;;;;57.03;21.63;;;0.80;99.90;;;;;;5072406;28;20187;-46
2023/01/26 01:21:40;;;;;;;52.28;21.05;;;0.70;99.90;;;;;;5054963;28;20221;-46
2023/01/26 01:24:06;;;;;;;55.38;21.95;;;0.80;99.90;;;;;;5054750;28;20229;-47
2023/01/26 01:26:32;;;;;;;54.08;21.50;;;0.70;99.90;;;;;;5054909;28;20257;-46
2023/01/26 01:28:58;;;;;;;48.47;20.25;;;0.80;99.90;;;;;;5054880;28;20216;-46
2023/01/26 01:31:24;;;;;;;55.08;20.02;;;0.80;99.90;;;;;;5074622;28;20166;-46
2023/01/26 01:33:51;;;;;;;51.30;21.25;;;0.70;99.90;;;;;;5075112;28;20166;-47
2023/01/26 01:36:17;;;;;;;69.68;24.67;;;0.60;99.90;;;;;;5075214;28;20178;-47
2023/01/26 01:38:44;;;;;;;53.00;21.42;;;0.60;99.90;;;;;;5063386;28;20560;-47
2023/01/26 01:41:11;;;;;;;54.90;21.63;;;0.70;99.90;;;;;;5054571;28;20163;-46
2023/01/26 01:43:37;;;;;;;58.08;22.33;;;0.60;99.90;;;;;;5054421;28;20712;-46
2023/01/26 01:46:13;;;;;;;57.05;22.50;;;0.80;99.90;;;;;;5054427;28;20526;-46
2023/01/26 01:49:16;;;;;;;57.05;23.10;;;0.80;99.90;;;;;;5054513;28;20179;-46
2023/01/26 01:51:47;;;;;;;58.35;21.25;;;0.90;99.90;;;;;;5047317;28;20178;-46
2023/01/26 01:54:19;;;;;;;50.97;20.67;;;0.90;99.90;;;;;;5054141;28;20221;-46
2023/01/26 01:56:51;;;;;;;48.53;19.70;;;0.90;99.90;;;;;;5054426;28;20163;-46
2023/01/26 01:59:20;;;;;;;55.22;19.75;;;0.80;99.90;;;;;;5054552;28;20174;-46
2023/01/26 02:01:47;;;;;;;45.83;18.77;;;0.80;99.90;;;;;;5054522;28;20166;-45
2023/01/26 02:04:13;;;;;;;52.80;20.25;;;0.80;99.90;;;;;;5053941;28;20222;-45
2023/01/26 02:06:46;;;;;;;47.83;19.30;;;0.80;99.90;;;;;;5054116;28;20644;-45
2023/01/26 02:10:17;;;;;;;49.72;19.30;;;0.90;99.90;;;;;;5068300;28;20189;-45
2023/01/26 02:12:01;;;;;;;50.13;18.70;;;0.80;99.90;;;;;;5073939;28;20409;-45
2023/01/26 02:14:27;;;;;;;50.42;19.75;;;0.80;99.90;;;;;;5073011;28;20177;-45
2023/01/26 02:16:53;;;;;;;51.05;19.75;;;0.80;99.90;;;;;;5064833;28;20181;-45
2023/01/26 02:19:35;;;;;;;56.00;22.23;;;0.80;99.90;;;;;;5054265;28;20174;-45
2023/01/26 02:22:09;;;;;;;50.30;19.92;;;0.90;99.90;;;;;;5053308;28;20281;-46
2023/01/26 02:24:39;;;;;;;60.63;22.25;;;0.90;99.90;;;;;;5053327;28;20171;-45
2023/01/26 02:27:05;;;;;;;46.17;19.75;;;0.90;99.90;;;;;;5063630;28;20650;-45
2023/01/26 02:29:30;;;;;;;47.40;20.00;;;0.80;99.90;;;;;;5073632;28;20158;-45
2023/01/26 02:31:56;;;;;;;50.13;18.83;;;0.80;99.90;;;;;;5073673;28;20239;-45
2023/01/26 02:34:24;;;;;;;49.50;20.67;;;0.70;99.90;;;;;;5073677;28;20235;-45
2023/01/26 02:37:00;;;;;;;50.97;20.40;;;0.60;99.90;;;;;;5072094;28;20174;-45
2023/01/26 02:39:48;;;;;;;47.65;19.92;;;0.80;99.90;;;;;;5073518;28;20162;-45
2023/01/26 02:44:58;;;;;;;45.38;17.85;;;0.60;99.90;;;;;;5069480;28;20190;-45
2023/01/26 02:47:24;;;;;;;47.08;19.52;;;0.50;99.90;;;;;;5060374;28;20582;-45
2023/01/26 02:49:49;;;;;;;41.90;17.70;;;0.60;99.90;;;;;;5073374;28;20342;-45
2023/01/26 02:52:24;;;;;;;46.58;16.75;;;0.50;99.90;;;;;;5072075;28;20169;-46
2023/01/26 02:57:35;;;;;;;41.97;17.30;;;0.50;99.90;;;;;;5064498;28;20173;-45
2023/01/26 03:00:04;;;;;;;44.97;19.02;;;0.50;99.90;;;;;;5052925;28;20179;-45
2023/01/26 03:02:29;;;;;;;44.45;17.98;;;0.50;99.90;;;;;;5052787;28;20252;-45
2023/01/26 03:04:55;;;;;;;42.25;17.85;;;0.50;99.90;;;;;;5052870;28;20218;-45
2023/01/26 03:07:20;;;;;;;45.92;18.98;;;0.60;99.90;;;;;;5059472;28;20166;-45
2023/01/26 03:09:46;;;;;;;43.80;17.55;;;0.50;99.90;;;;;;5072968;28;20227;-45
2023/01/26 03:12:12;;;;;;;45.42;18.40;;;0.40;99.90;;;;;;5072979;28;20279;-45
2023/01/26 03:14:37;;;;;;;41.95;16.00;;;0.50;99.90;;;;;;5072588;28;20181;-45
2023/01/26 03:17:03;;;;;;;40.28;16.70;;;0.50;99.90;;;;;;5068582;28;20171;-45
2023/01/26 03:27:43;;;;;;;36.15;14.98;;;0.60;99.90;;;;;;5060973;28;20227;-47
2023/01/26 03:30:10;;;;;;;35.72;15.13;;;0.50;99.90;;;;;;5072785;28;20185;-47
2023/01/26 03:32:35;;;;;;;39.85;16.25;;;0.40;99.90;;;;;;5072437;28;20495;-47
2023/01/26 03:35:01;;;;;;;37.15;15.60;;;0.50;99.90;;;;;;5071664;28;20177;-45
2023/01/26 03:37:27;;;;;;;35.58;15.98;;;0.50;99.90;;;;;;5065208;28;20174;-45
2023/01/26 03:56:23;;;;;;;41.35;16.73;;;0.50;99.90;;;;;;5072107;28;20304;-46
2023/01/26 03:58:52;;;;;;;37.95;16.67;;;0.40;99.90;;;;;;5054684;28;20249;-46
2023/01/26 04:01:20;;;;;;;40.92;17.70;;;0.40;99.90;;;;;;5052560;28;20178;-47
2023/01/26 04:09:17;;;;;;;47.88;17.85;;;0.50;99.90;;;;;;5051453;28;20761;-47
2023/01/26 04:11:43;;;;;;;47.88;18.27;;;0.60;99.90;;;;;;5051993;28;20189;-46
2023/01/26 04:22:24;;;;;;;40.35;17.70;;;0.60;99.90;;;;;;5071507;28;20664;-45
2023/01/26 04:24:49;;;;;;;42.85;17.67;;;0.60;99.90;;;;;;5072097;28;20174;-46
2023/01/26 04:27:15;;;;;;;50.85;20.27;;;0.50;99.90;;;;;;5067652;28;20185;-45
2023/01/26 04:29:40;;;;;;;44.70;18.83;;;0.50;99.90;;;;;;5051938;28;20623;-47
2023/01/26 04:32:06;;;;;;;43.50;19.45;;;0.60;99.90;;;;;;5051845;28;20662;-46
2023/01/26 04:34:31;;;;;;;40.45;17.88;;;0.60;99.90;;;;;;5050380;28;20178;-46
2023/01/26 04:36:57;;;;;;;46.33;17.60;;;0.70;99.90;;;;;;5066085;28;20170;-46
2023/01/26 04:39:22;;;;;;;46.05;18.95;;;0.70;99.90;;;;;;5071816;28;20506;-46
2023/01/26 04:41:48;;;;;;;46.30;17.50;;;0.70;99.90;;;;;;5072170;28;20251;-46
2023/01/26 04:44:13;;;;;;;42.90;17.90;;;0.70;99.90;;;;;;5071691;28;20204;-47
2023/01/26 04:46:39;;;;;;;39.65;16.77;;;0.70;99.90;;;;;;5059485;28;20182;-47
2023/01/26 04:49:05;;;;;;;37.30;16.30;;;0.60;99.90;;;;;;5051712;28;20194;-46
2023/01/26 04:51:30;;;;;;;40.83;17.88;;;0.70;99.90;;;;;;5051665;28;20237;-47
2023/01/26 04:53:56;;;;;;;39.70;17.02;;;0.70;99.90;;;;;;5050405;28;20170;-46
2023/01/26 04:56:27;;;;;;;38.67;15.57;;;0.70;99.90;;;;;;5051749;28;20545;-46
2023/01/26 04:58:54;;;;;;;38.97;17.67;;;0.70;99.90;;;;;;5051536;28;20170;-46
2023/01/26 05:01:20;;;;;;;43.33;18.95;;;0.80;99.90;;;;;;5052030;28;20216;-46
2023/01/26 05:03:46;;;;;;;39.90;15.70;;;-0.40;99.90;;;;;;5051764;28;20230;-47
2023/01/26 05:06:12;;;;;;;44.20;16.55;;;0.70;99.90;;;;;;5058991;28;20215;-46
2023/01/26 05:08:38;;;;;;;38.50;16.30;;;0.80;99.90;;;;;;5071690;28;20577;-46
2023/01/26 05:11:04;;;;;;;41.72;17.45;;;0.70;99.90;;;;;;5071614;28;20248;-46
2023/01/26 05:13:29;;;;;;;31.25;13.93;;;0.70;99.90;;;;;;5071539;28;20162;-47
2023/01/26 05:15:55;;;;;;;38.72;17.05;;;0.70;99.90;;;;;;5066154;28;20170;-46
2023/01/26 05:18:20;;;;;;;35.42;16.33;;;0.80;99.90;;;;;;5051408;28;20170;-45
2023/01/26 05:20:46;;;;;;;39.55;17.08;;;0.90;99.90;;;;;;5051633;28;20534;-46
2023/01/26 05:23:12;;;;;;;40.80;18.30;;;0.80;99.90;;;;;;5051606;28;20530;-46
2023/01/26 05:25:37;;;;;;;42.58;17.60;;;0.80;99.90;;;;;;5053331;28;20166;-46
2023/01/26 05:28:03;;;;;;;45.15;18.13;;;0.90;99.90;;;;;;5064458;28;20265;-46
2023/01/26 05:30:29;;;;;;;41.72;18.13;;;0.80;99.90;;;;;;5051392;28;20650;-45
2023/01/26 05:33:04;;;;;;;42.58;16.63;;;0.80;99.90;;;;;;5051316;28;20208;-45
2023/01/26 05:35:29;;;;;;;40.10;16.95;;;0.80;99.90;;;;;;5051966;28;20212;-45
2023/01/26 05:37:55;;;;;;;37.78;16.95;;;0.80;99.90;;;;;;5071335;28;20650;-45
2023/01/26 05:40:21;;;;;;;42.63;16.98;;;0.90;99.90;;;;;;5071530;28;20261;-45
2023/01/26 05:42:47;;;;;;;44.00;17.70;;;0.80;99.90;;;;;;5071501;28;20201;-45
2023/01/26 05:45:13;;;;;;;43.92;18.23;;;0.90;99.90;;;;;;5071490;28;20527;-45
2023/01/26 05:47:38;;;;;;;43.58;17.58;;;0.90;99.90;;;;;;5070459;28;20609;-45
2023/01/26 05:50:05;;;;;;;39.75;18.52;;;0.90;99.90;;;;;;5071137;28;20174;-45
2023/01/26 05:52:30;;;;;;;43.08;17.15;;;0.90;99.90;;;;;;5070995;28;20555;-45
2023/01/26 05:54:56;;;;;;;39.20;17.83;;;1.00;99.90;;;;;;5070984;28;20170;-45
2023/01/26 05:57:21;;;;;;;42.58;17.00;;;0.90;99.90;;;;;;5054923;28;20765;-45
2023/01/26 05:59:47;;;;;;;44.85;17.42;;;1.00;99.90;;;;;;5053524;28;20170;-45
2023/01/26 06:02:12;;;;;;;42.65;18.52;;;0.90;99.90;;;;;;5054395;28;20202;-45
2023/01/26 06:04:38;;;;;;;40.90;17.90;;;0.90;99.90;;;;;;5054244;28;20230;-45
2023/01/26 06:07:04;;;;;;;42.22;17.38;;;1.00;99.90;;;;;;5067313;28;20534;-45
2023/01/26 06:09:29;;;;;;;51.13;19.00;;;0.90;99.90;;;;;;5074145;28;20189;-45
2023/01/26 06:11:56;;;;;;;45.88;18.10;;;0.90;99.90;;;;;;5073957;28;20582;-45
2023/01/26 06:14:22;;;;;;;49.20;18.05;;;1.00;99.90;;;;;;5068807;28;20582;-45
2023/01/26 06:16:47;;;;;;;43.30;16.92;;;1.00;99.90;;;;;;5054181;28;20221;-45
2023/01/26 06:19:13;;;;;;;45.53;17.05;;;0.90;99.90;;;;;;5054005;28;20174;-45
2023/01/26 06:21:39;;;;;;;43.97;15.55;;;0.90;99.90;;;;;;5053874;28;20237;-45
2023/01/26 06:24:05;;;;;;;40.40;17.65;;;0.90;99.90;;;;;;5053920;28;20297;-45
2023/01/26 06:26:30;;;;;;;42.88;17.02;;;1.00;99.90;;;;;;5053657;28;20162;-45
2023/01/26 06:28:56;;;;;;;45.50;17.08;;;1.00;99.90;;;;;;5053635;28;20605;-45
2023/01/26 06:31:23;;;;;;;43.38;16.85;;;1.00;99.90;;;;;;5053606;28;20623;-45
2023/01/26 06:33:49;;;;;;;35.40;15.77;;;1.10;99.90;;;;;;5065918;28;20257;-45
2023/01/26 06:36:15;;;;;;;45.75;17.17;;;1.00;99.90;;;;;;5073375;28;20201;-45
2023/01/26 06:38:45;;;;;;;42.15;17.10;;;1.10;99.90;;;;;;5073432;28;20221;-45
2023/01/26 06:41:11;;;;;;;38.42;15.50;;;1.10;99.90;;;;;;5073390;28;20174;-45
2023/01/26 06:43:36;;;;;;;38.50;15.52;;;1.20;99.90;;;;;;5072007;28;20209;-45
2023/01/26 06:46:04;;;;;;;40.00;15.48;;;1.20;99.90;;;;;;5057907;28;20173;-45
2023/01/26 06:48:33;;;;;;;38.33;16.55;;;1.20;99.90;;;;;;5053251;28;20186;-45
2023/01/26 06:51:14;;;;;;;42.72;17.33;;;1.20;99.90;;;;;;5053001;28;20634;-45
2023/01/26 06:53:46;;;;;;;40.33;15.45;;;1.40;99.90;;;;;;5063138;28;21065;-45
2023/01/26 06:56:11;;;;;;;43.30;15.88;;;1.40;99.90;;;;;;5072904;28;20173;-45
2023/01/26 06:58:37;;;;;;;40.53;16.20;;;1.50;99.90;;;;;;5073102;28;20169;-45
2023/01/26 07:01:03;;;;;;;35.80;14.45;;;1.50;99.90;;;;;;5073093;28;20174;-45
2023/01/26 07:03:29;;;;;;;31.95;12.88;;;1.50;99.90;;;;;;5063743;28;20297;-45
2023/01/26 07:05:55;;;;;;;56.42;14.32;;;1.30;99.90;;;;;;5052791;28;20254;-45
2023/01/26 07:08:20;;;;;;;33.70;14.23;;;1.40;99.90;;;;;;5053013;28;20637;-45
2023/01/26 07:10:46;;;;;;;35.75;15.00;;;1.50;99.90;;;;;;5052788;28;20178;-46
2023/01/26 07:13:11;;;;;;;37.53;14.63;;;1.60;99.90;;;;;;5065366;28;20642;-45
2023/01/26 07:15:37;;;;;;;36.60;15.30;;;1.50;99.90;;;;;;5057064;28;20179;-45
2023/01/26 07:18:02;;;;;;;32.35;14.13;;;1.60;99.90;;;;;;5052742;28;20240;-45
2023/01/26 07:20:28;;;;;;;29.55;12.82;;;1.50;99.90;;;;;;5052606;28;20170;-45
2023/01/26 07:22:54;;;;;;;31.58;13.15;;;1.60;99.90;;;;;;5070760;28;20233;-45
2023/01/26 07:25:19;;;;;;;31.08;13.30;;;1.50;99.90;;;;;;5073225;28;20173;-45
2023/01/26 07:27:45;;;;;;;33.03;13.10;;;1.60;99.90;;;;;;5072618;28;20180;-45
2023/01/26 07:30:14;;;;;;;32.60;13.15;;;1.50;99.90;;;;;;5072775;28;20209;-50
2023/01/26 07:32:41;;;;;;;31.15;14.32;;;1.50;99.90;;;;;;5071533;28;20638;-46
2023/01/26 07:35:07;;;;;;;37.92;15.68;;;1.90;99.90;;;;;;5071126;28;20197;-46
2023/01/26 07:37:32;;;;;;;31.92;13.80;;;1.30;99.90;;;;;;5072395;28;20166;-46
2023/01/26 07:39:58;;;;;;;39.10;16.23;;;1.50;99.90;;;;;;5072342;28;20232;-45
2023/01/26 07:42:23;;;;;;;40.22;14.43;;;1.40;99.90;;;;;;5058114;28;20213;-45
2023/01/26 07:44:49;;;;;;;36.30;14.63;;;1.50;99.90;;;;;;5052594;28;20685;-47
2023/01/26 07:47:14;;;;;;;41.03;16.10;;;1.50;99.90;;;;;;5052308;28;20169;-45
2023/01/26 07:49:40;;;;;;;41.78;17.80;;;1.50;99.90;;;;;;5052111;28;20173;-45
2023/01/26 07:52:07;;;;;;;38.97;15.95;;;1.40;99.90;;;;;;5062883;28;20178;-45
2023/01/26 07:54:33;;;;;;;42.75;15.45;;;1.40;99.90;;;;;;5066319;28;20257;-45
2023/01/26 07:56:59;;;;;;;43.47;16.55;;;1.40;99.90;;;;;;5057887;28;20252;-48
2023/01/26 07:59:24;;;;;;;41.95;17.05;;;1.60;99.90;;;;;;5069777;28;20244;-48
2023/01/26 08:01:50;;;;;;;39.67;15.65;;;1.50;99.90;;;;;;5070404;28;20189;-49
2023/01/26 08:04:16;;;;;;;35.72;14.55;;;1.50;99.90;;;;;;5070525;28;20233;-45
2023/01/26 08:06:42;;;;;;;40.03;15.25;;;1.50;99.90;;;;;;5069096;28;20890;-48
2023/01/26 08:09:07;;;;;;;32.85;14.57;;;1.50;99.90;;;;;;5055736;28;20198;-44
2023/01/26 08:11:34;;;;;;;35.38;15.07;;;1.50;99.90;;;;;;5050223;28;20164;-44
2023/01/26 08:13:59;;;;;;;38.25;16.38;;;1.40;99.90;;;;;;5050290;28;20175;-45
2023/01/26 08:16:25;;;;;;;34.42;15.60;;;1.40;99.90;;;;;;5054485;28;20207;-46
2023/01/26 08:18:50;;;;;;;41.95;15.82;;;1.50;99.90;;;;;;5061758;28;20943;-45
2023/01/26 08:21:17;;;;;;;38.03;15.52;;;1.60;99.90;;;;;;5050291;28;20162;-46
2023/01/26 08:23:46;;;;;;;41.92;17.27;;;1.50;99.90;;;;;;5050307;28;20352;-47
2023/01/26 08:26:12;;;;;;;41.70;16.65;;;1.50;99.90;;;;;;5050272;28;20182;-47
2023/01/26 08:28:38;;;;;;;44.22;16.33;;;1.60;99.90;;;;;;5050053;28;20175;-49
2023/01/26 08:31:12;;;;;;;44.67;18.02;;;1.40;99.90;;;;;;5049970;28;20684;-47
2023/01/26 08:33:39;;;;;;;42.83;17.98;;;1.50;99.90;;;;;;5049981;28;20253;-48
2023/01/26 08:36:09;;;;;;;41.63;15.98;;;1.40;99.90;;;;;;5061158;28;20177;-46
2023/01/26 08:38:35;;;;;;;42.42;16.67;;;1.40;99.90;;;;;;5069793;28;20173;-46
2023/01/26 08:41:01;;;;;;;40.55;16.88;;;1.50;99.90;;;;;;5069998;28;20172;-46
2023/01/26 08:43:28;;;;;;;48.95;18.85;;;1.50;99.90;;;;;;5066345;28;20210;-45
2023/01/26 08:45:53;;;;;;;39.17;16.67;;;1.60;99.90;;;;;;5049634;28;20175;-48
2023/01/26 08:48:19;;;;;;;47.97;18.23;;;1.60;99.90;;;;;;5050127;28;20228;-47
2023/01/26 08:50:45;;;;;;;40.45;15.57;;;1.60;99.90;;;;;;5049994;28;20187;-45
2023/01/26 08:53:10;;;;;;;42.28;16.55;;;1.60;99.90;;;;;;5050045;28;20178;-45
2023/01/26 08:55:36;;;;;;;39.85;15.50;;;1.60;99.90;;;;;;5052088;28;20170;-46
2023/01/26 08:58:02;;;;;;;37.30;15.63;;;1.70;99.90;;;;;;5069723;28;20181;-48
2023/01/26 09:00:28;;;;;;;43.03;17.02;;;1.60;99.90;;;;;;5069973;28;20535;-47
2023/01/26 09:03:01;;;;;;;44.72;18.67;;;1.60;99.90;;;;;;5069387;28;20201;-46
2023/01/26 09:05:29;;;;;;;47.60;17.75;;;1.60;99.90;;;;;;5051020;28;20226;-46
2023/01/26 09:07:55;;;;;;;41.15;17.38;;;1.70;99.90;;;;;;5049295;28;20631;-47
2023/01/26 09:10:21;;;;;;;44.83;18.00;;;1.80;99.90;;;;;;5049516;28;20177;-47
2023/01/26 09:12:46;;;;;;;41.03;16.70;;;1.90;99.90;;;;;;5050019;28;20167;-46
2023/01/26 09:15:12;;;;;;;43.67;17.10;;;1.80;99.90;;;;;;5065227;28;20599;-46
2023/01/26 09:17:37;;;;;;;42.63;17.60;;;2.00;99.90;;;;;;5069949;28;20231;-47
2023/01/26 09:20:05;;;;;;;42.85;17.75;;;1.90;99.90;;;;;;5069371;28;20717;-45
2023/01/26 09:22:31;;;;;;;54.67;20.23;;;2.00;99.90;;;;;;5069603;28;20178;-45
2023/01/26 09:24:57;;;;;;;46.22;18.92;;;2.00;99.90;;;;;;5055983;28;20688;-45
2023/01/26 09:27:22;;;;;;;46.65;17.42;;;2.10;99.90;;;;;;5049366;28;20162;-45
2023/01/26 09:29:48;;;;;;;41.30;17.52;;;2.10;99.90;;;;;;5050222;28;20167;-45
2023/01/26 09:32:13;;;;;;;38.53;16.63;;;2.10;99.90;;;;;;5050962;28;20163;-45
2023/01/26 09:34:39;;;;;;;35.70;16.55;;;2.10;99.90;;;;;;5065822;28;20181;-45
2023/01/26 09:37:08;;;;;;;38.53;16.23;;;2.10;99.90;;;;;;5074374;28;20209;-45
2023/01/26 09:39:34;;;;;;;37.20;15.70;;;1.90;99.90;;;;;;5074702;28;20522;-45
2023/01/26 09:42:03;;;;;;;42.05;17.38;;;2.00;99.90;;;;;;5074775;28;20166;-45
2023/01/26 09:44:36;;;;;;;39.50;17.05;;;1.90;99.90;;;;;;5062246;28;20658;-45
2023/01/26 09:47:18;;;;;;;40.53;16.50;;;1.90;99.90;;;;;;5054302;28;20670;-45
2023/01/26 09:49:52;;;;;;;37.45;15.93;;;1.80;99.90;;;;;;5054439;28;20163;-45
2023/01/26 09:52:25;;;;;;;36.42;16.08;;;1.90;99.90;;;;;;5054700;28;20174;-45
2023/01/26 09:54:56;;;;;;;42.65;17.45;;;1.90;99.90;;;;;;5071510;28;20188;-45
2023/01/26 09:58:04;;;;;;;39.85;16.88;;;2.00;99.90;;;;;;5074255;28;20665;-45
2023/01/26 10:00:45;;;;;;;40.05;15.93;;;1.90;99.90;;;;;;5074267;28;20219;-45
2023/01/26 10:03:40;;;;;;;39.47;16.15;;;1.90;99.90;;;;;;5071173;28;20210;-45
2023/01/26 10:06:13;;;;;;;38.22;16.73;;;1.90;99.90;;;;;;5054050;28;20174;-45
2023/01/26 10:08:42;;;;;;;44.53;18.45;;;1.80;99.90;;;;;;5052695;28;20736;-45
2023/01/26 10:11:17;;;;;;;41.65;17.75;;;1.90;99.90;;;;;;5053871;28;20162;-45
2023/01/26 10:13:50;;;;;;;35.53;15.07;;;1.90;99.90;;;;;;5053900;28;20227;-45
2023/01/26 10:16:15;;;;;;;42.78;17.27;;;1.90;99.90;;;;;;5054349;28;20181;-45
2023/01/26 10:18:56;;;;;;;35.00;16.00;;;1.90;99.90;;;;;;5053923;28;20622;-45
2023/01/26 10:21:27;;;;;;;46.97;18.02;;;1.90;99.90;;;;;;5054902;28;20177;-45
2023/01/26 10:23:54;;;;;;;50.90;17.40;;;1.90;99.90;;;;;;5053545;28;20218;-45
2023/01/26 10:26:21;;;;;;;48.00;20.17;;;1.90;99.90;;;;;;5053680;28;20171;-45
2023/01/26 10:28:50;;;;;;;44.10;18.13;;;1.90;99.90;;;;;;5054102;28;20174;-45
2023/01/26 10:31:16;;;;;;;56.85;20.02;;;2.00;99.90;;;;;;5067415;28;20212;-45
2023/01/26 10:34:09;;;;;;;46.17;19.05;;;1.90;99.90;;;;;;5073743;28;20665;-45
2023/01/26 10:36:34;;;;;;;51.13;18.02;;;2.00;99.90;;;;;;5073454;28;20170;-45
2023/01/26 10:39:05;;;;;;;50.55;20.45;;;1.90;99.90;;;;;;5073863;28;20698;-45
2023/01/26 10:41:31;;;;;;;59.85;21.75;;;1.90;99.90;;;;;;5057822;28;20162;-45
2023/01/26 10:44:03;;;;;;;48.55;16.83;;;2.00;99.90;;;;;;5053809;28;20220;-45
2023/01/26 10:46:35;;;;;;;54.03;20.83;;;2.00;99.90;;;;;;5053032;28;20630;-45
2023/01/26 10:49:13;;;;;;;56.53;19.45;;;2.00;99.90;;;;;;5061046;28;20174;-45
2023/01/26 10:52:03;;;;;;;54.50;20.42;;;1.90;99.90;;;;;;5073089;28;20216;-45
2023/01/26 10:54:32;;;;;;;53.60;21.98;;;1.90;99.90;;;;;;5072291;28;20170;-45
2023/01/26 10:57:01;;;;;;;54.83;20.40;;;2.00;99.90;;;;;;5073148;28;20192;-45
2023/01/26 10:59:33;;;;;;;55.15;19.23;;;2.00;99.90;;;;;;5062084;28;20257;-46
2023/01/26 11:02:23;;;;;;;53.58;19.38;;;1.90;99.90;;;;;;5053519;28;20261;-45
2023/01/26 11:05:02;;;;;;;56.30;21.15;;;1.90;99.90;;;;;;5054353;28;20222;-47
2023/01/26 11:07:39;;;;;;;51.17;19.55;;;1.90;99.90;;;;;;5072562;28;20170;-47
2023/01/26 11:10:20;;;;;;;50.42;18.92;;;2.10;99.90;;;;;;5073124;28;20590;-47
2023/01/26 11:12:46;;;;;;;43.03;18.35;;;2.00;99.90;;;;;;5071912;28;20170;-47
2023/01/26 11:15:19;;;;;;;44.83;19.10;;;2.00;99.90;;;;;;5071960;28;20638;-47
2023/01/26 11:18:05;;;;;;;42.47;17.27;;;2.00;99.90;;;;;;5073050;28;20178;-46
2023/01/26 11:20:34;;;;;;;48.45;19.92;;;2.10;99.90;;;;;;5072915;28;20460;-46
2023/01/26 11:23:10;;;;;;;50.30;19.58;;;2.10;99.90;;;;;;5072492;28;20194;-47
2023/01/26 11:26:01;;;;;;;44.97;18.63;;;2.20;99.90;;;;;;5052914;28;20174;-46
2023/01/26 11:28:30;;;;;;;44.60;19.08;;;2.10;99.90;;;;;;5052612;28;20646;-46
2023/01/26 11:31:21;;;;;;;48.13;16.17;;;2.20;99.90;;;;;;5052440;28;20174;-46
2023/01/26 11:33:54;;;;;;;41.33;18.27;;;2.20;99.90;;;;;;5057968;28;20170;-45
2023/01/26 11:36:27;;;;;;;46.03;18.33;;;2.20;99.90;;;;;;5072038;28;20177;-45
2023/01/26 11:39:20;;;;;;;43.95;18.52;;;2.30;99.90;;;;;;5072467;28;20166;-45
2023/01/26 11:42:20;;;;;;;50.55;20.45;;;2.40;99.90;;;;;;5072698;28;20177;-45
2023/01/26 11:45:02;;;;;;;52.10;20.55;;;2.20;99.90;;;;;;5058825;28;20244;-45
2023/01/26 11:47:30;;;;;;;52.45;20.27;;;2.20;99.90;;;;;;5050955;28;20661;-45
2023/01/26 11:50:24;;;;;;;50.03;20.83;;;2.20;99.90;;;;;;5052305;28;20171;-45
2023/01/26 11:52:59;;;;;;;51.25;20.25;;;2.10;99.90;;;;;;5052032;28;20166;-45
2023/01/26 11:55:54;;;;;;;48.90;19.90;;;2.20;99.90;;;;;;5070504;28;20181;-46
2023/01/26 11:58:28;;;;;;;48.97;18.25;;;2.00;99.90;;;;;;5071447;28;20560;-45
2023/01/26 12:00:59;;;;;;;49.90;19.58;;;2.20;99.90;;;;;;5070542;28;20181;-45
2023/01/26 12:03:45;;;;;;;47.08;19.45;;;2.10;99.90;;;;;;5069769;28;20194;-45
2023/01/26 12:06:37;;;;;;;39.17;18.08;;;2.10;99.90;;;;;;5050503;28;20175;-45
2023/01/26 12:09:17;;;;;;;38.60;17.95;;;2.10;99.90;;;;;;5052142;28;20180;-45
2023/01/26 12:11:59;;;;;;;40.03;18.17;;;2.20;99.90;;;;;;5052289;28;20166;-45
2023/01/26 12:14:33;;;;;;;32.63;14.02;;;2.40;99.90;;;;;;5064119;28;20177;-45
2023/01/26 12:17:17;;;;;;;31.05;12.63;;;2.20;99.90;;;;;;5071642;28;20170;-45
2023/01/26 12:20:03;;;;;;;27.33;12.15;;;2.20;99.90;;;;;;5071643;28;20625;-45
2023/01/26 12:22:37;;;;;;;22.88;10.90;;;2.30;99.90;;;;;;5062188;28;20277;-45
2023/01/26 12:25:33;;;;;;;26.85;12.50;;;2.40;99.90;;;;;;5051553;28;20205;-45
2023/01/26 12:28:13;;;;;;;24.45;11.65;;;2.30;99.90;;;;;;5051521;28;20688;-44
2023/01/26 12:30:52;;;;;;;30.50;12.23;;;2.50;99.90;;;;;;5051334;28;20170;-45
2023/01/26 12:33:17;;;;;;;23.58;10.82;;;2.40;99.90;;;;;;5055884;28;20178;-45
2023/01/26 12:36:08;;;;;;;29.35;12.68;;;4.50;99.90;;;;;;5051582;28;20181;-45
2023/01/26 12:38:40;;;;;;;29.90;11.73;;;2.60;99.90;;;;;;5051474;28;20582;-45
2023/01/26 12:41:18;;;;;;;23.55;11.80;;;2.50;99.90;;;;;;5051353;28;20162;-45
2023/01/26 12:44:20;;;;;;;20.98;10.75;;;2.60;99.90;;;;;;5070628;28;20233;-45
2023/01/26 12:46:51;;;;;;;25.10;11.43;;;2.60;99.90;;;;;;5071684;28;20248;-45
2023/01/26 12:49:20;;;;;;;23.15;11.68;;;2.60;99.90;;;;;;5064812;28;20182;-45
2023/01/26 12:51:53;;;;;;;27.30;11.13;;;2.60;99.90;;;;;;5051649;28;20525;-45
2023/01/26 12:54:39;;;;;;;26.77;12.77;;;2.60;99.90;;;;;;5051158;28;20163;-45
2023/01/26 12:57:11;;;;;;;30.42;12.15;;;2.70;99.90;;;;;;5051136;28;20173;-45
2023/01/26 12:59:38;;;;;;;23.33;12.65;;;2.70;99.90;;;;;;5060079;28;20177;-45
2023/01/26 13:02:15;;;;;;;25.30;11.52;;;2.80;99.90;;;;;;5071122;28;20176;-45
2023/01/26 13:04:44;;;;;;;21.30;10.30;;;2.80;99.90;;;;;;5071031;28;20236;-45
2023/01/26 13:07:27;;;;;;;14.27;7.38;;;2.70;99.90;;;;;;5071134;28;20166;-45
2023/01/26 13:10:19;;;;;;;14.43;6.80;;;2.80;99.90;;;;;;5063765;28;20178;-45
2023/01/26 13:12:55;;;;;;;17.83;8.20;;;2.70;99.90;;;;;;5048483;28;20179;-45
2023/01/26 13:15:24;;;;;;;17.38;9.23;;;2.80;99.90;;;;;;5055050;28;20162;-45
2023/01/26 13:17:54;;;;;;;11.40;6.50;;;2.90;99.90;;;;;;5055141;28;20166;-45
2023/01/26 13:20:44;;;;;;;13.20;6.78;;;2.90;99.90;;;;;;5069259;28;20663;-45
2023/01/26 13:23:41;;;;;;;11.75;6.45;;;2.80;99.90;;;;;;5075237;28;20198;-45
2023/01/26 13:26:16;;;;;;;15.02;6.40;;;2.90;99.90;;;;;;5075047;28;20216;-45
2023/01/26 13:28:42;;;;;;;12.43;7.03;;;2.90;99.90;;;;;;5073694;28;20161;-45
2023/01/26 13:31:09;;;;;;;11.60;6.40;;;2.80;99.90;;;;;;5055115;28;20183;-45
2023/01/26 13:33:34;;;;;;;11.70;6.72;;;2.80;99.90;;;;;;5054775;28;20174;-45
2023/01/26 13:36:12;;;;;;;12.07;7.53;;;2.90;99.90;;;;;;5054928;28;20170;-45